sensor_id;sensor_type;location;lat;lon;timestamp;temperature;humidity
20492;DHT22;10404;51.468;6.762;2023-04-25T00:02:03;8.10;64.70
20492;DHT22;10404;51.468;6.762;2023-04-25T00:04:29;8.10;64.80
20492;DHT22;10404;51.468;6.762;2023-04-25T00:06:59;8.10;64.70
20492;DHT22;10404;51.468;6.762;2023-04-25T00:09:27;8.10;64.90
20492;DHT22;10404;51.468;6.762;2023-04-25T00:11:53;8.10;64.90
20492;DHT22;10404;51.468;6.762;2023-04-25T00:14:18;8.10;64.90
20492;DHT22;10404;51.468;6.762;2023-04-25T00:16:44;8.00;65.00
20492;DHT22;10404;51.468;6.762;2023-04-25T00:19:10;8.00;65.00
20492;DHT22;10404;51.468;6.762;2023-04-25T00:21:36;8.00;65.00
20492;DHT22;10404;51.468;6.762;2023-04-25T00:24:03;8.00;65.00
20492;DHT22;10404;51.468;6.762;2023-04-25T00:26:29;8.00;65.10
20492;DHT22;10404;51.468;6.762;2023-04-25T00:28:54;8.00;65.10
20492;DHT22;10404;51.468;6.762;2023-04-25T00:31:21;8.00;65.00
20492;DHT22;10404;51.468;6.762;2023-04-25T00:33:47;8.00;65.10
20492;DHT22;10404;51.468;6.762;2023-04-25T00:36:13;8.00;65.10
20492;DHT22;10404;51.468;6.762;2023-04-25T00:38:39;8.00;65.20
20492;DHT22;10404;51.468;6.762;2023-04-25T00:41:08;8.00;65.30
20492;DHT22;10404;51.468;6.762;2023-04-25T00:43:34;8.00;65.30
20492;DHT22;10404;51.468;6.762;2023-04-25T00:46:01;8.00;65.30
20492;DHT22;10404;51.468;6.762;2023-04-25T00:48:27;8.00;65.40
20492;DHT22;10404;51.468;6.762;2023-04-25T00:50:54;8.00;65.40
20492;DHT22;10404;51.468;6.762;2023-04-25T00:53:21;7.90;65.40
20492;DHT22;10404;51.468;6.762;2023-04-25T00:55:47;7.90;65.50
20492;DHT22;10404;51.468;6.762;2023-04-25T00:58:16;7.90;65.60
20492;DHT22;10404;51.468;6.762;2023-04-25T01:00:42;7.90;65.50
20492;DHT22;10404;51.468;6.762;2023-04-25T01:03:09;7.80;65.60
20492;DHT22;10404;51.468;6.762;2023-04-25T01:05:35;7.90;65.60
20492;DHT22;10404;51.468;6.762;2023-04-25T01:08:01;7.80;65.60
20492;DHT22;10404;51.468;6.762;2023-04-25T01:10:27;7.80;65.70
20492;DHT22;10404;51.468;6.762;2023-04-25T01:12:52;7.80;65.70
20492;DHT22;10404;51.468;6.762;2023-04-25T01:15:18;7.80;65.80
20492;DHT22;10404;51.468;6.762;2023-04-25T01:17:44;7.80;65.90
20492;DHT22;10404;51.468;6.762;2023-04-25T01:20:11;7.80;65.80
20492;DHT22;10404;51.468;6.762;2023-04-25T01:22:37;7.80;65.90
20492;DHT22;10404;51.468;6.762;2023-04-25T01:25:03;7.80;66.00
20492;DHT22;10404;51.468;6.762;2023-04-25T01:27:30;7.80;65.90
20492;DHT22;10404;51.468;6.762;2023-04-25T01:29:56;7.80;66.00
20492;DHT22;10404;51.468;6.762;2023-04-25T01:32:25;7.80;66.20
20492;DHT22;10404;51.468;6.762;2023-04-25T01:34:51;7.80;66.20
20492;DHT22;10404;51.468;6.762;2023-04-25T01:37:17;7.80;66.40
20492;DHT22;10404;51.468;6.762;2023-04-25T01:39:43;7.80;66.30
20492;DHT22;10404;51.468;6.762;2023-04-25T01:42:09;7.80;66.50
20492;DHT22;10404;51.468;6.762;2023-04-25T01:44:35;7.80;66.50
20492;DHT22;10404;51.468;6.762;2023-04-25T01:47:01;7.80;66.60
20492;DHT22;10404;51.468;6.762;2023-04-25T01:49:26;7.80;66.60
20492;DHT22;10404;51.468;6.762;2023-04-25T01:51:52;7.80;66.70
20492;DHT22;10404;51.468;6.762;2023-04-25T01:54:18;7.80;66.70
20492;DHT22;10404;51.468;6.762;2023-04-25T01:56:50;7.80;66.70
20492;DHT22;10404;51.468;6.762;2023-04-25T01:59:16;7.80;66.70
20492;DHT22;10404;51.468;6.762;2023-04-25T02:01:42;7.80;66.80
20492;DHT22;10404;51.468;6.762;2023-04-25T02:04:07;7.70;66.80
20492;DHT22;10404;51.468;6.762;2023-04-25T02:06:33;7.70;66.80
20492;DHT22;10404;51.468;6.762;2023-04-25T02:08:58;7.70;66.90
20492;DHT22;10404;51.468;6.762;2023-04-25T02:11:24;7.70;66.90
20492;DHT22;10404;51.468;6.762;2023-04-25T02:13:50;7.70;67.00
20492;DHT22;10404;51.468;6.762;2023-04-25T02:16:15;7.70;67.10
20492;DHT22;10404;51.468;6.762;2023-04-25T02:18:41;7.60;67.20
20492;DHT22;10404;51.468;6.762;2023-04-25T02:21:07;7.60;67.20
20492;DHT22;10404;51.468;6.762;2023-04-25T02:23:33;7.60;67.20
20492;DHT22;10404;51.468;6.762;2023-04-25T02:25:59;7.60;67.20
20492;DHT22;10404;51.468;6.762;2023-04-25T02:28:25;7.60;67.30
20492;DHT22;10404;51.468;6.762;2023-04-25T02:30:51;7.60;67.30
20492;DHT22;10404;51.468;6.762;2023-04-25T02:33:17;7.60;67.30
20492;DHT22;10404;51.468;6.762;2023-04-25T02:35:43;7.60;67.50
20492;DHT22;10404;51.468;6.762;2023-04-25T02:38:08;7.60;67.40
20492;DHT22;10404;51.468;6.762;2023-04-25T02:40:34;7.60;67.50
20492;DHT22;10404;51.468;6.762;2023-04-25T02:43:00;7.60;67.40
20492;DHT22;10404;51.468;6.762;2023-04-25T02:45:25;7.60;67.50
20492;DHT22;10404;51.468;6.762;2023-04-25T02:47:51;7.60;67.50
20492;DHT22;10404;51.468;6.762;2023-04-25T02:50:16;7.60;67.50
20492;DHT22;10404;51.468;6.762;2023-04-25T02:52:43;7.60;67.60
20492;DHT22;10404;51.468;6.762;2023-04-25T02:55:09;7.60;67.70
20492;DHT22;10404;51.468;6.762;2023-04-25T02:57:36;7.60;67.60
20492;DHT22;10404;51.468;6.762;2023-04-25T03:00:02;7.50;67.60
20492;DHT22;10404;51.468;6.762;2023-04-25T03:02:30;7.50;67.70
20492;DHT22;10404;51.468;6.762;2023-04-25T03:04:55;7.50;67.70
20492;DHT22;10404;51.468;6.762;2023-04-25T03:07:21;7.50;67.70
20492;DHT22;10404;51.468;6.762;2023-04-25T03:09:46;7.50;67.80
20492;DHT22;10404;51.468;6.762;2023-04-25T03:12:12;7.50;67.80
20492;DHT22;10404;51.468;6.762;2023-04-25T03:14:37;7.50;67.90
20492;DHT22;10404;51.468;6.762;2023-04-25T03:17:03;7.50;67.90
20492;DHT22;10404;51.468;6.762;2023-04-25T03:19:29;7.50;67.90
20492;DHT22;10404;51.468;6.762;2023-04-25T03:21:54;7.50;68.00
20492;DHT22;10404;51.468;6.762;2023-04-25T03:24:20;7.50;68.00
20492;DHT22;10404;51.468;6.762;2023-04-25T03:26:46;7.50;68.00
20492;DHT22;10404;51.468;6.762;2023-04-25T03:29:11;7.50;68.00
20492;DHT22;10404;51.468;6.762;2023-04-25T03:31:37;7.50;68.00
20492;DHT22;10404;51.468;6.762;2023-04-25T03:34:02;7.50;68.10
20492;DHT22;10404;51.468;6.762;2023-04-25T03:36:28;7.50;68.00
20492;DHT22;10404;51.468;6.762;2023-04-25T03:38:54;7.50;68.00
20492;DHT22;10404;51.468;6.762;2023-04-25T03:41:19;7.50;68.10
20492;DHT22;10404;51.468;6.762;2023-04-25T03:43:45;7.50;68.00
20492;DHT22;10404;51.468;6.762;2023-04-25T03:46:11;7.50;68.00
20492;DHT22;10404;51.468;6.762;2023-04-25T03:48:36;7.50;68.00
20492;DHT22;10404;51.468;6.762;2023-04-25T03:51:02;7.50;68.00
20492;DHT22;10404;51.468;6.762;2023-04-25T03:53:28;7.40;68.00
20492;DHT22;10404;51.468;6.762;2023-04-25T03:55:53;7.40;68.10
20492;DHT22;10404;51.468;6.762;2023-04-25T03:58:19;7.40;68.20
20492;DHT22;10404;51.468;6.762;2023-04-25T04:00:45;7.40;68.20
20492;DHT22;10404;51.468;6.762;2023-04-25T04:03:10;7.40;68.10
20492;DHT22;10404;51.468;6.762;2023-04-25T04:05:36;7.40;68.20
20492;DHT22;10404;51.468;6.762;2023-04-25T04:08:02;7.40;68.30
20492;DHT22;10404;51.468;6.762;2023-04-25T04:10:28;7.40;68.20
20492;DHT22;10404;51.468;6.762;2023-04-25T04:12:53;7.40;68.30
20492;DHT22;10404;51.468;6.762;2023-04-25T04:15:19;7.40;68.20
20492;DHT22;10404;51.468;6.762;2023-04-25T04:17:45;7.40;68.30
20492;DHT22;10404;51.468;6.762;2023-04-25T04:20:12;7.30;68.30
20492;DHT22;10404;51.468;6.762;2023-04-25T04:22:37;7.40;68.30
20492;DHT22;10404;51.468;6.762;2023-04-25T04:25:03;7.40;68.50
20492;DHT22;10404;51.468;6.762;2023-04-25T04:27:31;7.30;68.40
20492;DHT22;10404;51.468;6.762;2023-04-25T04:29:57;7.30;68.40
20492;DHT22;10404;51.468;6.762;2023-04-25T04:32:23;7.30;68.40
20492;DHT22;10404;51.468;6.762;2023-04-25T04:34:49;7.30;68.40
20492;DHT22;10404;51.468;6.762;2023-04-25T04:37:14;7.20;68.40
20492;DHT22;10404;51.468;6.762;2023-04-25T04:39:40;7.20;68.30
20492;DHT22;10404;51.468;6.762;2023-04-25T04:42:06;7.20;68.30
20492;DHT22;10404;51.468;6.762;2023-04-25T04:44:32;7.20;68.30
20492;DHT22;10404;51.468;6.762;2023-04-25T04:46:58;7.20;68.30
20492;DHT22;10404;51.468;6.762;2023-04-25T04:49:24;7.20;68.30
20492;DHT22;10404;51.468;6.762;2023-04-25T04:51:50;7.20;68.30
20492;DHT22;10404;51.468;6.762;2023-04-25T04:54:16;7.20;68.20
20492;DHT22;10404;51.468;6.762;2023-04-25T04:56:42;7.20;68.30
20492;DHT22;10404;51.468;6.762;2023-04-25T04:59:07;7.20;68.30
20492;DHT22;10404;51.468;6.762;2023-04-25T05:01:33;7.20;68.30
20492;DHT22;10404;51.468;6.762;2023-04-25T05:04:01;7.20;68.30
20492;DHT22;10404;51.468;6.762;2023-04-25T05:06:28;7.10;68.30
20492;DHT22;10404;51.468;6.762;2023-04-25T05:08:57;7.10;68.30
20492;DHT22;10404;51.468;6.762;2023-04-25T05:11:23;7.10;68.30
20492;DHT22;10404;51.468;6.762;2023-04-25T05:13:52;7.10;68.20
20492;DHT22;10404;51.468;6.762;2023-04-25T05:16:18;7.00;68.20
20492;DHT22;10404;51.468;6.762;2023-04-25T05:18:43;7.00;68.20
20492;DHT22;10404;51.468;6.762;2023-04-25T05:21:09;7.00;68.20
20492;DHT22;10404;51.468;6.762;2023-04-25T05:23:35;7.00;68.30
20492;DHT22;10404;51.468;6.762;2023-04-25T05:26:01;7.00;68.20
20492;DHT22;10404;51.468;6.762;2023-04-25T05:28:26;7.00;68.30
20492;DHT22;10404;51.468;6.762;2023-04-25T05:30:52;7.00;68.30
20492;DHT22;10404;51.468;6.762;2023-04-25T05:33:18;7.00;68.20
20492;DHT22;10404;51.468;6.762;2023-04-25T05:35:44;7.00;68.20
20492;DHT22;10404;51.468;6.762;2023-04-25T05:38:10;7.00;68.20
20492;DHT22;10404;51.468;6.762;2023-04-25T05:40:36;7.00;68.30
20492;DHT22;10404;51.468;6.762;2023-04-25T05:43:02;7.00;68.40
20492;DHT22;10404;51.468;6.762;2023-04-25T05:45:27;7.00;68.30
20492;DHT22;10404;51.468;6.762;2023-04-25T05:47:53;7.00;68.30
20492;DHT22;10404;51.468;6.762;2023-04-25T05:50:19;7.00;68.30
20492;DHT22;10404;51.468;6.762;2023-04-25T05:52:44;7.00;68.30
20492;DHT22;10404;51.468;6.762;2023-04-25T05:55:10;7.00;68.40
20492;DHT22;10404;51.468;6.762;2023-04-25T05:57:36;7.00;68.40
20492;DHT22;10404;51.468;6.762;2023-04-25T06:00:01;7.00;68.40
20492;DHT22;10404;51.468;6.762;2023-04-25T06:02:28;7.00;68.30
20492;DHT22;10404;51.468;6.762;2023-04-25T06:04:54;7.00;68.30
20492;DHT22;10404;51.468;6.762;2023-04-25T06:07:19;7.00;68.20
20492;DHT22;10404;51.468;6.762;2023-04-25T06:09:45;7.00;68.30
20492;DHT22;10404;51.468;6.762;2023-04-25T06:12:11;7.00;68.20
20492;DHT22;10404;51.468;6.762;2023-04-25T06:14:37;7.00;68.20
20492;DHT22;10404;51.468;6.762;2023-04-25T06:17:03;7.00;68.20
20492;DHT22;10404;51.468;6.762;2023-04-25T06:19:34;7.00;68.20
20492;DHT22;10404;51.468;6.762;2023-04-25T06:21:59;7.00;68.10
20492;DHT22;10404;51.468;6.762;2023-04-25T06:24:25;7.00;68.00
20492;DHT22;10404;51.468;6.762;2023-04-25T06:26:51;7.10;68.00
20492;DHT22;10404;51.468;6.762;2023-04-25T06:29:16;7.20;68.00
20492;DHT22;10404;51.468;6.762;2023-04-25T06:31:42;7.20;68.20
20492;DHT22;10404;51.468;6.762;2023-04-25T06:34:08;7.30;68.20
20492;DHT22;10404;51.468;6.762;2023-04-25T06:36:33;7.50;68.10
20492;DHT22;10404;51.468;6.762;2023-04-25T06:38:59;7.50;67.80
20492;DHT22;10404;51.468;6.762;2023-04-25T06:41:25;7.60;67.50
20492;DHT22;10404;51.468;6.762;2023-04-25T06:43:50;7.60;67.50
20492;DHT22;10404;51.468;6.762;2023-04-25T06:46:16;7.60;67.50
20492;DHT22;10404;51.468;6.762;2023-04-25T06:48:42;7.60;67.60
20492;DHT22;10404;51.468;6.762;2023-04-25T06:51:07;7.60;67.50
20492;DHT22;10404;51.468;6.762;2023-04-25T06:53:33;7.60;67.50
20492;DHT22;10404;51.468;6.762;2023-04-25T06:55:59;7.60;67.50
20492;DHT22;10404;51.468;6.762;2023-04-25T06:58:24;7.60;67.50
20492;DHT22;10404;51.468;6.762;2023-04-25T07:00:51;7.60;67.40
20492;DHT22;10404;51.468;6.762;2023-04-25T07:03:17;7.60;67.40
20492;DHT22;10404;51.468;6.762;2023-04-25T07:05:43;7.60;67.30
20492;DHT22;10404;51.468;6.762;2023-04-25T07:08:11;7.60;67.30
20492;DHT22;10404;51.468;6.762;2023-04-25T07:10:37;7.60;67.50
20492;DHT22;10404;51.468;6.762;2023-04-25T07:13:02;7.60;67.50
20492;DHT22;10404;51.468;6.762;2023-04-25T07:15:28;7.60;67.60
20492;DHT22;10404;51.468;6.762;2023-04-25T07:17:54;7.60;67.70
20492;DHT22;10404;51.468;6.762;2023-04-25T07:20:19;7.60;67.80
20492;DHT22;10404;51.468;6.762;2023-04-25T07:22:45;7.80;68.20
20492;DHT22;10404;51.468;6.762;2023-04-25T07:25:11;8.00;68.10
20492;DHT22;10404;51.468;6.762;2023-04-25T07:27:37;8.20;67.40
20492;DHT22;10404;51.468;6.762;2023-04-25T07:30:03;8.40;66.90
20492;DHT22;10404;51.468;6.762;2023-04-25T07:32:29;8.50;66.50
20492;DHT22;10404;51.468;6.762;2023-04-25T07:34:55;8.60;66.10
20492;DHT22;10404;51.468;6.762;2023-04-25T07:37:21;8.70;65.90
20492;DHT22;10404;51.468;6.762;2023-04-25T07:39:46;8.80;65.70
20492;DHT22;10404;51.468;6.762;2023-04-25T07:42:12;8.80;65.50
20492;DHT22;10404;51.468;6.762;2023-04-25T07:44:38;8.90;65.50
20492;DHT22;10404;51.468;6.762;2023-04-25T07:47:06;9.00;65.10
20492;DHT22;10404;51.468;6.762;2023-04-25T07:49:36;9.00;65.00
20492;DHT22;10404;51.468;6.762;2023-04-25T07:52:04;9.00;65.00
20492;DHT22;10404;51.468;6.762;2023-04-25T07:54:31;9.10;65.00
20492;DHT22;10404;51.468;6.762;2023-04-25T07:56:57;9.20;64.70
20492;DHT22;10404;51.468;6.762;2023-04-25T07:59:22;9.20;64.70
20492;DHT22;10404;51.468;6.762;2023-04-25T08:01:48;9.30;64.70
20492;DHT22;10404;51.468;6.762;2023-04-25T08:04:14;9.40;64.50
20492;DHT22;10404;51.468;6.762;2023-04-25T08:06:40;9.50;64.40
20492;DHT22;10404;51.468;6.762;2023-04-25T08:09:06;9.70;64.10
20492;DHT22;10404;51.468;6.762;2023-04-25T08:11:32;9.90;63.50
20492;DHT22;10404;51.468;6.762;2023-04-25T08:13:58;10.00;63.30
20492;DHT22;10404;51.468;6.762;2023-04-25T08:16:24;10.00;63.00
20492;DHT22;10404;51.468;6.762;2023-04-25T08:18:50;10.10;62.80
20492;DHT22;10404;51.468;6.762;2023-04-25T08:21:16;10.10;62.80
20492;DHT22;10404;51.468;6.762;2023-04-25T08:23:42;10.10;62.50
20492;DHT22;10404;51.468;6.762;2023-04-25T08:26:07;10.20;62.60
20492;DHT22;10404;51.468;6.762;2023-04-25T08:28:33;10.30;62.20
20492;DHT22;10404;51.468;6.762;2023-04-25T08:30:59;10.40;62.50
20492;DHT22;10404;51.468;6.762;2023-04-25T08:33:25;10.50;62.00
20492;DHT22;10404;51.468;6.762;2023-04-25T08:35:51;10.60;61.60
20492;DHT22;10404;51.468;6.762;2023-04-25T08:38:17;10.60;61.30
20492;DHT22;10404;51.468;6.762;2023-04-25T08:40:43;10.70;61.30
20492;DHT22;10404;51.468;6.762;2023-04-25T08:43:09;10.80;61.30
20492;DHT22;10404;51.468;6.762;2023-04-25T08:45:42;10.90;61.20
20492;DHT22;10404;51.468;6.762;2023-04-25T08:48:11;10.90;61.10
20492;DHT22;10404;51.468;6.762;2023-04-25T08:50:47;10.80;61.20
20492;DHT22;10404;51.468;6.762;2023-04-25T08:53:15;10.80;60.90
20492;DHT22;10404;51.468;6.762;2023-04-25T08:55:45;10.80;60.90
20492;DHT22;10404;51.468;6.762;2023-04-25T08:58:12;10.70;60.80
20492;DHT22;10404;51.468;6.762;2023-04-25T09:00:38;10.70;60.00
20492;DHT22;10404;51.468;6.762;2023-04-25T09:03:04;10.80;60.60
20492;DHT22;10404;51.468;6.762;2023-04-25T09:05:32;10.90;60.60
20492;DHT22;10404;51.468;6.762;2023-04-25T09:07:57;10.90;60.20
20492;DHT22;10404;51.468;6.762;2023-04-25T09:10:23;11.00;59.50
20492;DHT22;10404;51.468;6.762;2023-04-25T09:13:09;11.10;59.40
20492;DHT22;10404;51.468;6.762;2023-04-25T09:15:53;11.30;58.80
20492;DHT22;10404;51.468;6.762;2023-04-25T09:18:26;11.40;58.90
20492;DHT22;10404;51.468;6.762;2023-04-25T09:20:53;11.50;58.70
20492;DHT22;10404;51.468;6.762;2023-04-25T09:23:21;11.70;58.80
20492;DHT22;10404;51.468;6.762;2023-04-25T09:25:51;11.80;58.30
20492;DHT22;10404;51.468;6.762;2023-04-25T09:28:25;11.90;57.90
20492;DHT22;10404;51.468;6.762;2023-04-25T09:30:55;11.90;57.40
20492;DHT22;10404;51.468;6.762;2023-04-25T09:33:30;11.90;57.30
20492;DHT22;10404;51.468;6.762;2023-04-25T09:36:05;11.90;57.40
20492;DHT22;10404;51.468;6.762;2023-04-25T09:38:32;11.90;57.00
20492;DHT22;10404;51.468;6.762;2023-04-25T09:40:58;11.90;56.80
20492;DHT22;10404;51.468;6.762;2023-04-25T09:43:25;11.90;56.90
20492;DHT22;10404;51.468;6.762;2023-04-25T09:45:53;11.90;57.00
20492;DHT22;10404;51.468;6.762;2023-04-25T09:48:22;11.90;57.10
20492;DHT22;10404;51.468;6.762;2023-04-25T09:51:12;12.00;57.20
20492;DHT22;10404;51.468;6.762;2023-04-25T09:53:42;12.00;56.90
20492;DHT22;10404;51.468;6.762;2023-04-25T09:56:10;12.00;56.80
20492;DHT22;10404;51.468;6.762;2023-04-25T09:58:38;12.10;56.50
20492;DHT22;10404;51.468;6.762;2023-04-25T10:01:06;12.20;56.40
20492;DHT22;10404;51.468;6.762;2023-04-25T10:03:41;12.40;56.60
20492;DHT22;10404;51.468;6.762;2023-04-25T10:06:12;12.60;55.20
20492;DHT22;10404;51.468;6.762;2023-04-25T10:08:38;12.80;54.90
20492;DHT22;10404;51.468;6.762;2023-04-25T10:11:07;13.00;55.10
20492;DHT22;10404;51.468;6.762;2023-04-25T10:13:34;13.20;54.80
20492;DHT22;10404;51.468;6.762;2023-04-25T10:16:05;13.30;54.60
20492;DHT22;10404;51.468;6.762;2023-04-25T10:18:31;13.30;54.10
20492;DHT22;10404;51.468;6.762;2023-04-25T10:21:01;13.50;54.40
20492;DHT22;10404;51.468;6.762;2023-04-25T10:23:30;13.60;54.00
20492;DHT22;10404;51.468;6.762;2023-04-25T10:25:56;13.70;53.70
20492;DHT22;10404;51.468;6.762;2023-04-25T10:28:22;13.70;53.50
20492;DHT22;10404;51.468;6.762;2023-04-25T10:31:01;13.80;52.40
20492;DHT22;10404;51.468;6.762;2023-04-25T10:33:39;13.90;53.10
20492;DHT22;10404;51.468;6.762;2023-04-25T10:36:33;14.00;53.00
20492;DHT22;10404;51.468;6.762;2023-04-25T10:39:04;14.10;52.60
20492;DHT22;10404;51.468;6.762;2023-04-25T10:41:45;14.10;52.20
20492;DHT22;10404;51.468;6.762;2023-04-25T10:44:11;14.10;52.60
20492;DHT22;10404;51.468;6.762;2023-04-25T10:46:37;14.00;52.70
20492;DHT22;10404;51.468;6.762;2023-04-25T10:49:03;14.00;52.00
20492;DHT22;10404;51.468;6.762;2023-04-25T10:51:33;13.90;51.00
20492;DHT22;10404;51.468;6.762;2023-04-25T10:54:04;13.80;51.10
20492;DHT22;10404;51.468;6.762;2023-04-25T10:56:31;13.70;51.50
20492;DHT22;10404;51.468;6.762;2023-04-25T10:59:19;13.60;51.80
20492;DHT22;10404;51.468;6.762;2023-04-25T11:01:46;13.60;52.20
20492;DHT22;10404;51.468;6.762;2023-04-25T11:04:32;13.50;52.20
20492;DHT22;10404;51.468;6.762;2023-04-25T11:07:26;13.40;53.00
20492;DHT22;10404;51.468;6.762;2023-04-25T11:09:54;13.30;53.30
20492;DHT22;10404;51.468;6.762;2023-04-25T11:12:19;13.30;53.40
20492;DHT22;10404;51.468;6.762;2023-04-25T11:14:45;13.20;53.50
20492;DHT22;10404;51.468;6.762;2023-04-25T11:17:11;13.10;53.60
20492;DHT22;10404;51.468;6.762;2023-04-25T11:19:36;13.10;53.80
20492;DHT22;10404;51.468;6.762;2023-04-25T11:22:02;13.10;53.90
20492;DHT22;10404;51.468;6.762;2023-04-25T11:24:30;13.10;54.00
20492;DHT22;10404;51.468;6.762;2023-04-25T11:26:57;13.10;54.20
20492;DHT22;10404;51.468;6.762;2023-04-25T11:29:26;13.10;54.30
20492;DHT22;10404;51.468;6.762;2023-04-25T11:31:52;13.10;53.40
20492;DHT22;10404;51.468;6.762;2023-04-25T11:34:19;13.10;53.30
20492;DHT22;10404;51.468;6.762;2023-04-25T11:36:45;13.10;53.70
20492;DHT22;10404;51.468;6.762;2023-04-25T11:39:11;13.10;54.30
20492;DHT22;10404;51.468;6.762;2023-04-25T11:41:38;13.10;54.10
20492;DHT22;10404;51.468;6.762;2023-04-25T11:44:04;13.10;53.10
20492;DHT22;10404;51.468;6.762;2023-04-25T11:46:30;13.10;53.20
20492;DHT22;10404;51.468;6.762;2023-04-25T11:48:57;13.10;53.30
20492;DHT22;10404;51.468;6.762;2023-04-25T11:51:23;13.10;52.90
20492;DHT22;10404;51.468;6.762;2023-04-25T11:53:48;13.10;53.20
20492;DHT22;10404;51.468;6.762;2023-04-25T11:56:14;13.10;52.90
20492;DHT22;10404;51.468;6.762;2023-04-25T11:58:59;13.10;53.10
20492;DHT22;10404;51.468;6.762;2023-04-25T12:01:37;13.10;53.50
20492;DHT22;10404;51.468;6.762;2023-04-25T12:04:16;13.10;53.80
20492;DHT22;10404;51.468;6.762;2023-04-25T12:06:44;13.10;53.80
20492;DHT22;10404;51.468;6.762;2023-04-25T12:09:13;13.10;54.00
20492;DHT22;10404;51.468;6.762;2023-04-25T12:11:43;13.10;54.10
20492;DHT22;10404;51.468;6.762;2023-04-25T12:14:09;13.10;54.50
20492;DHT22;10404;51.468;6.762;2023-04-25T12:16:42;13.10;55.00
20492;DHT22;10404;51.468;6.762;2023-04-25T12:19:08;13.10;55.30
20492;DHT22;10404;51.468;6.762;2023-04-25T12:21:34;13.10;55.60
20492;DHT22;10404;51.468;6.762;2023-04-25T12:26:50;13.10;55.90
20492;DHT22;10404;51.468;6.762;2023-04-25T12:29:22;13.10;55.30
20492;DHT22;10404;51.468;6.762;2023-04-25T12:31:49;13.10;55.20
20492;DHT22;10404;51.468;6.762;2023-04-25T12:34:14;13.10;54.60
20492;DHT22;10404;51.468;6.762;2023-04-25T12:36:40;13.20;54.70
20492;DHT22;10404;51.468;6.762;2023-04-25T12:39:06;13.30;54.80
20492;DHT22;10404;51.468;6.762;2023-04-25T12:41:32;13.30;54.80
20492;DHT22;10404;51.468;6.762;2023-04-25T12:43:58;13.30;54.40
20492;DHT22;10404;51.468;6.762;2023-04-25T12:46:24;13.50;54.20
20492;DHT22;10404;51.468;6.762;2023-04-25T12:48:50;13.50;54.30
20492;DHT22;10404;51.468;6.762;2023-04-25T12:51:15;13.50;54.80
20492;DHT22;10404;51.468;6.762;2023-04-25T12:53:41;13.60;54.80
20492;DHT22;10404;51.468;6.762;2023-04-25T12:56:08;13.70;54.60
20492;DHT22;10404;51.468;6.762;2023-04-25T12:58:33;13.70;54.60
20492;DHT22;10404;51.468;6.762;2023-04-25T13:00:59;13.90;54.20
20492;DHT22;10404;51.468;6.762;2023-04-25T13:03:25;13.90;54.00
20492;DHT22;10404;51.468;6.762;2023-04-25T13:05:51;13.90;53.30
20492;DHT22;10404;51.468;6.762;2023-04-25T13:08:18;13.90;53.40
20492;DHT22;10404;51.468;6.762;2023-04-25T13:10:44;13.90;52.30
20492;DHT22;10404;51.468;6.762;2023-04-25T13:13:10;13.90;52.20
20492;DHT22;10404;51.468;6.762;2023-04-25T13:15:35;13.90;52.40
20492;DHT22;10404;51.468;6.762;2023-04-25T13:18:03;13.90;52.50
20492;DHT22;10404;51.468;6.762;2023-04-25T13:20:29;13.90;52.50
20492;DHT22;10404;51.468;6.762;2023-04-25T13:22:54;13.90;52.60
20492;DHT22;10404;51.468;6.762;2023-04-25T13:25:20;13.90;52.50
20492;DHT22;10404;51.468;6.762;2023-04-25T13:27:47;13.90;51.80
20492;DHT22;10404;51.468;6.762;2023-04-25T13:30:13;13.90;52.10
20492;DHT22;10404;51.468;6.762;2023-04-25T13:32:39;13.90;52.30
20492;DHT22;10404;51.468;6.762;2023-04-25T13:35:11;13.90;52.20
20492;DHT22;10404;51.468;6.762;2023-04-25T13:37:38;14.00;51.90
20492;DHT22;10404;51.468;6.762;2023-04-25T13:40:06;14.00;52.40
20492;DHT22;10404;51.468;6.762;2023-04-25T13:42:34;14.10;52.70
20492;DHT22;10404;51.468;6.762;2023-04-25T13:45:00;14.10;52.50
20492;DHT22;10404;51.468;6.762;2023-04-25T13:47:27;14.20;52.70
20492;DHT22;10404;51.468;6.762;2023-04-25T13:49:53;14.20;52.60
20492;DHT22;10404;51.468;6.762;2023-04-25T13:52:19;14.30;52.60
20492;DHT22;10404;51.468;6.762;2023-04-25T13:54:46;14.40;52.60
20492;DHT22;10404;51.468;6.762;2023-04-25T13:57:12;14.40;52.80
20492;DHT22;10404;51.468;6.762;2023-04-25T13:59:38;14.50;52.60
20492;DHT22;10404;51.468;6.762;2023-04-25T14:02:04;14.50;52.40
20492;DHT22;10404;51.468;6.762;2023-04-25T14:04:29;14.60;52.20
20492;DHT22;10404;51.468;6.762;2023-04-25T14:06:55;14.60;52.20
20492;DHT22;10404;51.468;6.762;2023-04-25T14:09:21;14.70;52.50
20492;DHT22;10404;51.468;6.762;2023-04-25T14:11:54;14.70;52.50
20492;DHT22;10404;51.468;6.762;2023-04-25T14:14:21;14.70;52.40
20492;DHT22;10404;51.468;6.762;2023-04-25T14:16:47;14.80;52.50
20492;DHT22;10404;51.468;6.762;2023-04-25T14:19:20;14.80;52.60
20492;DHT22;10404;51.468;6.762;2023-04-25T14:21:46;14.80;52.20
20492;DHT22;10404;51.468;6.762;2023-04-25T14:24:13;14.80;51.50
20492;DHT22;10404;51.468;6.762;2023-04-25T14:26:39;14.90;51.40
20492;DHT22;10404;51.468;6.762;2023-04-25T14:29:05;14.90;51.40
20492;DHT22;10404;51.468;6.762;2023-04-25T14:31:33;14.90;51.50
20492;DHT22;10404;51.468;6.762;2023-04-25T14:33:59;14.90;51.30
20492;DHT22;10404;51.468;6.762;2023-04-25T14:36:25;15.00;51.40
20492;DHT22;10404;51.468;6.762;2023-04-25T14:38:52;15.00;51.20
20492;DHT22;10404;51.468;6.762;2023-04-25T14:41:17;15.00;50.50
20492;DHT22;10404;51.468;6.762;2023-04-25T14:43:43;15.00;50.50
20492;DHT22;10404;51.468;6.762;2023-04-25T14:46:10;15.00;50.90
20492;DHT22;10404;51.468;6.762;2023-04-25T14:48:36;15.00;50.50
20492;DHT22;10404;51.468;6.762;2023-04-25T14:51:02;15.00;50.50
20492;DHT22;10404;51.468;6.762;2023-04-25T14:53:28;15.00;50.70
20492;DHT22;10404;51.468;6.762;2023-04-25T14:55:53;15.00;50.80
20492;DHT22;10404;51.468;6.762;2023-04-25T14:58:19;15.00;49.70
20492;DHT22;10404;51.468;6.762;2023-04-25T15:00:45;15.00;49.60
20492;DHT22;10404;51.468;6.762;2023-04-25T15:03:11;15.00;49.40
20492;DHT22;10404;51.468;6.762;2023-04-25T15:05:39;15.00;49.60
20492;DHT22;10404;51.468;6.762;2023-04-25T15:08:05;15.00;49.80
20492;DHT22;10404;51.468;6.762;2023-04-25T15:10:32;15.00;46.50
20492;DHT22;10404;51.468;6.762;2023-04-25T15:12:58;14.90;46.60
20492;DHT22;10404;51.468;6.762;2023-04-25T15:15:23;14.90;47.00
20492;DHT22;10404;51.468;6.762;2023-04-25T15:17:50;14.90;47.70
20492;DHT22;10404;51.468;6.762;2023-04-25T15:20:16;15.00;48.00
20492;DHT22;10404;51.468;6.762;2023-04-25T15:22:43;15.00;48.40
20492;DHT22;10404;51.468;6.762;2023-04-25T15:25:10;15.00;48.50
20492;DHT22;10404;51.468;6.762;2023-04-25T15:27:37;15.00;48.50
20492;DHT22;10404;51.468;6.762;2023-04-25T15:30:07;15.00;48.80
20492;DHT22;10404;51.468;6.762;2023-04-25T15:32:33;15.10;49.10
20492;DHT22;10404;51.468;6.762;2023-04-25T15:35:01;15.20;49.10
20492;DHT22;10404;51.468;6.762;2023-04-25T15:37:27;15.20;49.00
20492;DHT22;10404;51.468;6.762;2023-04-25T15:42:38;15.30;49.10
20492;DHT22;10404;51.468;6.762;2023-04-25T15:45:06;15.30;49.40